sensor_id;sensor_type;location;lat;lon;timestamp;pressure;altitude;pressure_sealevel;temperature;humidity
84590;BME280;76270;48.816;8.740;2024-02-04T00:00:58;96528.88;;;21.61;37.28
84590;BME280;76270;48.816;8.740;2024-02-04T00:02:59;96521.63;;;21.62;36.97
84590;BME280;76270;48.816;8.740;2024-02-04T00:05:27;96521.47;;;21.63;36.85
84590;BME280;76270;48.816;8.740;2024-02-04T00:07:29;96528.88;;;21.61;37.19
84590;BME280;76270;48.816;8.740;2024-02-04T00:09:31;96520.78;;;21.61;37.28
84590;BME280;76270;48.816;8.740;2024-02-04T00:11:36;96506.47;;;21.61;37.28
84590;BME280;76270;48.816;8.740;2024-02-04T00:13:38;96498.38;;;21.61;37.21
84590;BME280;76270;48.816;8.740;2024-02-04T00:15:40;96489.44;;;21.60;37.12
84590;BME280;76270;48.816;8.740;2024-02-04T00:17:42;96488.59;;;21.59;37.07
84590;BME280;76270;48.816;8.740;2024-02-04T00:19:44;96489.44;;;21.60;37.21
84590;BME280;76270;48.816;8.740;2024-02-04T00:21:46;96490.28;;;21.61;36.97
84590;BME280;76270;48.816;8.740;2024-02-04T00:23:48;96479.50;;;21.61;37.05
84590;BME280;76270;48.816;8.740;2024-02-04T00:25:50;96474.09;;;21.61;36.78
84590;BME280;76270;48.816;8.740;2024-02-04T00:27:51;96472.41;;;21.59;36.95
84590;BME280;76270;48.816;8.740;2024-02-04T00:29:53;96468.88;;;21.59;37.04
84590;BME280;76270;48.816;8.740;2024-02-04T00:31:55;96478.66;;;21.60;36.98
84590;BME280;76270;48.816;8.740;2024-02-04T00:33:57;96488.59;;;21.59;37.29
84590;BME280;76270;48.816;8.740;2024-02-04T00:35:59;96478.00;;;21.58;37.17
84590;BME280;76270;48.816;8.740;2024-02-04T00:38:01;96473.41;;;21.58;36.86
84590;BME280;76270;48.816;8.740;2024-02-04T00:40:05;96468.88;;;21.59;36.68
84590;BME280;76270;48.816;8.740;2024-02-04T00:42:07;96461.81;;;21.58;37.24
84590;BME280;76270;48.816;8.740;2024-02-04T00:44:09;96468.22;;;21.57;36.97
84590;BME280;76270;48.816;8.740;2024-02-04T00:46:10;96464.50;;;21.58;37.23
84590;BME280;76270;48.816;8.740;2024-02-04T00:48:12;96460.78;;;21.59;36.87
84590;BME280;76270;48.816;8.740;2024-02-04T00:50:14;96478.00;;;21.58;37.32
84590;BME280;76270;48.816;8.740;2024-02-04T00:52:16;96492.31;;;21.58;36.84
84590;BME280;76270;48.816;8.740;2024-02-04T00:54:18;96489.78;;;21.57;36.80
84590;BME280;76270;48.816;8.740;2024-02-04T00:56:20;96489.78;;;21.57;37.09
84590;BME280;76270;48.816;8.740;2024-02-04T00:58:22;96480.84;;;21.56;37.08
84590;BME280;76270;48.816;8.740;2024-02-04T01:00:23;96478.16;;;21.56;37.14
84590;BME280;76270;48.816;8.740;2024-02-04T01:02:25;96481.69;;;21.57;36.63
84590;BME280;76270;48.816;8.740;2024-02-04T01:04:27;96480.84;;;21.56;37.36
84590;BME280;76270;48.816;8.740;2024-02-04T01:06:29;96471.06;;;21.55;36.88
84590;BME280;76270;48.816;8.740;2024-02-04T01:08:40;96461.13;;;21.56;37.27
84590;BME280;76270;48.816;8.740;2024-02-04T01:10:42;96467.53;;;21.55;36.85
84590;BME280;76270;48.816;8.740;2024-02-04T01:12:44;96472.94;;;21.55;36.75
84590;BME280;76270;48.816;8.740;2024-02-04T01:14:46;96472.75;;;21.56;36.95
84590;BME280;76270;48.816;8.740;2024-02-04T01:16:47;96462.97;;;21.55;37.17
84590;BME280;76270;48.816;8.740;2024-02-04T01:18:49;96460.44;;;21.54;36.95
84590;BME280;76270;48.816;8.740;2024-02-04T01:20:51;96459.59;;;21.53;36.93
84590;BME280;76270;48.816;8.740;2024-02-04T01:22:53;96457.75;;;21.54;36.78
84590;BME280;76270;48.816;8.740;2024-02-04T01:24:54;96457.56;;;21.55;36.98
84590;BME280;76270;48.816;8.740;2024-02-04T01:26:56;96461.31;;;21.54;36.64
84590;BME280;76270;48.816;8.740;2024-02-04T01:28:58;96460.44;;;21.54;37.03
84590;BME280;76270;48.816;8.740;2024-02-04T01:31:00;96458.59;;;21.54;36.82
84590;BME280;76270;48.816;8.740;2024-02-04T01:33:02;96450.66;;;21.53;37.12
84590;BME280;76270;48.816;8.740;2024-02-04T01:35:05;96452.38;;;21.54;36.94
84590;BME280;76270;48.816;8.740;2024-02-04T01:37:07;96451.50;;;21.53;37.19
84590;BME280;76270;48.816;8.740;2024-02-04T01:39:08;96457.91;;;21.52;36.60
84590;BME280;76270;48.816;8.740;2024-02-04T01:41:11;96468.69;;;21.52;37.04
84590;BME280;76270;48.816;8.740;2024-02-04T01:43:13;96463.31;;;21.52;37.07
84590;BME280;76270;48.816;8.740;2024-02-04T01:45:15;96463.31;;;21.52;36.89
84590;BME280;76270;48.816;8.740;2024-02-04T01:47:17;96460.59;;;21.52;37.08
84590;BME280;76270;48.816;8.740;2024-02-04T01:49:19;96452.69;;;21.51;37.16
84590;BME280;76270;48.816;8.740;2024-02-04T01:51:21;96467.88;;;21.52;37.07
84590;BME280;76270;48.816;8.740;2024-02-04T01:53:23;96469.72;;;21.51;36.72
84590;BME280;76270;48.816;8.740;2024-02-04T01:55:27;96467.03;;;21.51;36.72
84590;BME280;76270;48.816;8.740;2024-02-04T01:57:29;96456.25;;;21.51;36.64
84590;BME280;76270;48.816;8.740;2024-02-04T01:59:30;96452.69;;;21.51;36.83
84590;BME280;76270;48.816;8.740;2024-02-04T02:01:34;96447.31;;;21.51;36.92
84590;BME280;76270;48.816;8.740;2024-02-04T02:03:38;96451.84;;;21.50;36.52
84590;BME280;76270;48.816;8.740;2024-02-04T02:05:40;96453.69;;;21.50;37.16
84590;BME280;76270;48.816;8.740;2024-02-04T02:07:43;96448.31;;;21.50;36.56
84590;BME280;76270;48.816;8.740;2024-02-04T02:09:47;96462.81;;;21.49;36.70
84590;BME280;76270;48.816;8.740;2024-02-04T02:11:59;96454.56;;;21.50;36.73
84590;BME280;76270;48.816;8.740;2024-02-04T02:14:04;96454.75;;;21.49;37.13
84590;BME280;76270;48.816;8.740;2024-02-04T02:16:13;96449.34;;;21.49;37.08
84590;BME280;76270;48.816;8.740;2024-02-04T02:18:29;96460.13;;;21.49;37.12
84590;BME280;76270;48.816;8.740;2024-02-04T02:21:00;96471.72;;;21.49;36.70
84590;BME280;76270;48.816;8.740;2024-02-04T02:23:11;96457.44;;;21.49;36.91
84590;BME280;76270;48.816;8.740;2024-02-04T02:25:14;96454.03;;;21.47;36.69
84590;BME280;76270;48.816;8.740;2024-02-04T02:27:16;96458.63;;;21.46;36.71
84590;BME280;76270;48.816;8.740;2024-02-04T02:29:18;96462.97;;;21.47;36.86
84590;BME280;76270;48.816;8.740;2024-02-04T02:31:20;96469.41;;;21.46;36.53
84590;BME280;76270;48.816;8.740;2024-02-04T02:33:35;96455.91;;;21.46;36.78
84590;BME280;76270;48.816;8.740;2024-02-04T02:35:37;96449.69;;;21.46;37.13
84590;BME280;76270;48.816;8.740;2024-02-04T02:39:59;96451.34;;;21.47;36.91
84590;BME280;76270;48.816;8.740;2024-02-04T02:42:04;96444.28;;;21.46;36.82
84590;BME280;76270;48.816;8.740;2024-02-04T02:44:07;96444.28;;;21.46;36.91
84590;BME280;76270;48.816;8.740;2024-02-04T02:46:10;96441.59;;;21.46;36.73
84590;BME280;76270;48.816;8.740;2024-02-04T02:48:12;96449.69;;;21.46;36.70
84590;BME280;76270;48.816;8.740;2024-02-04T02:50:15;96442.59;;;21.45;37.13
84590;BME280;76270;48.816;8.740;2024-02-04T02:52:17;96443.44;;;21.45;36.87
84590;BME280;76270;48.816;8.740;2024-02-04T02:54:19;96444.28;;;21.46;36.63
84590;BME280;76270;48.816;8.740;2024-02-04T02:56:21;96436.19;;;21.46;36.70
84590;BME280;76270;48.816;8.740;2024-02-04T02:58:23;96430.94;;;21.44;37.06
84590;BME280;76270;48.816;8.740;2024-02-04T03:00:24;96430.09;;;21.44;36.93
84590;BME280;76270;48.816;8.740;2024-02-04T03:02:26;96429.09;;;21.45;36.73
84590;BME280;76270;48.816;8.740;2024-02-04T03:04:28;96426.41;;;21.45;37.05
84590;BME280;76270;48.816;8.740;2024-02-04T03:06:30;96423.72;;;21.45;36.83
84590;BME280;76270;48.816;8.740;2024-02-04T03:08:32;96413.94;;;21.44;36.78
84590;BME280;76270;48.816;8.740;2024-02-04T03:10:34;96416.63;;;21.44;36.58
84590;BME280;76270;48.816;8.740;2024-02-04T03:12:36;96414.78;;;21.44;36.97
84590;BME280;76270;48.816;8.740;2024-02-04T03:14:37;96412.06;;;21.44;36.80
84590;BME280;76270;48.816;8.740;2024-02-04T03:16:39;96414.97;;;21.43;36.79
84590;BME280;76270;48.816;8.740;2024-02-04T03:18:42;96424.72;;;21.44;36.66
84590;BME280;76270;48.816;8.740;2024-02-04T03:20:44;96419.50;;;21.42;36.63
84590;BME280;76270;48.816;8.740;2024-02-04T03:22:47;96408.53;;;21.44;37.03
84590;BME280;76270;48.816;8.740;2024-02-04T03:24:49;96406.03;;;21.42;36.74
84590;BME280;76270;48.816;8.740;2024-02-04T03:26:51;96397.09;;;21.42;36.59
84590;BME280;76270;48.816;8.740;2024-02-04T03:28:53;96402.47;;;21.42;36.71
84590;BME280;76270;48.816;8.740;2024-02-04T03:30:55;96408.72;;;21.42;37.09
84590;BME280;76270;48.816;8.740;2024-02-04T03:32:56;96415.97;;;21.42;36.84
84590;BME280;76270;48.816;8.740;2024-02-04T03:34:59;96401.47;;;21.43;37.01
84590;BME280;76270;48.816;8.740;2024-02-04T03:37:00;96397.09;;;21.42;36.83
84590;BME280;76270;48.816;8.740;2024-02-04T03:39:02;96398.78;;;21.43;36.81
84590;BME280;76270;48.816;8.740;2024-02-04T03:41:04;96401.47;;;21.43;36.68
84590;BME280;76270;48.816;8.740;2024-02-04T03:43:06;96405.16;;;21.42;36.60
84590;BME280;76270;48.816;8.740;2024-02-04T03:45:08;96400.63;;;21.42;36.84
84590;BME280;76270;48.816;8.740;2024-02-04T03:47:11;96403.47;;;21.41;36.98
84590;BME280;76270;48.816;8.740;2024-02-04T03:49:12;96396.22;;;21.41;36.76
84590;BME280;76270;48.816;8.740;2024-02-04T03:51:15;96392.69;;;21.41;37.02
84590;BME280;76270;48.816;8.740;2024-02-04T03:53:18;96388.34;;;21.40;36.70
84590;BME280;76270;48.816;8.740;2024-02-04T03:55:22;96393.72;;;21.40;36.80
84590;BME280;76270;48.816;8.740;2024-02-04T03:57:24;96390.00;;;21.41;36.71
84590;BME280;76270;48.816;8.740;2024-02-04T03:59:26;96391.03;;;21.40;36.77
84590;BME280;76270;48.816;8.740;2024-02-04T04:01:27;96395.56;;;21.39;36.53
84590;BME280;76270;48.816;8.740;2024-02-04T04:03:30;96395.56;;;21.39;36.63
84590;BME280;76270;48.816;8.740;2024-02-04T04:05:32;96402.81;;;21.39;36.92
84590;BME280;76270;48.816;8.740;2024-02-04T04:07:34;96410.91;;;21.39;36.80
84590;BME280;76270;48.816;8.740;2024-02-04T04:09:36;96413.59;;;21.39;36.92
84590;BME280;76270;48.816;8.740;2024-02-04T04:11:38;96421.69;;;21.39;36.73
84590;BME280;76270;48.816;8.740;2024-02-04T04:13:40;96419.19;;;21.37;36.75
84590;BME280;76270;48.816;8.740;2024-02-04T04:15:42;96422.72;;;21.38;36.81
84590;BME280;76270;48.816;8.740;2024-02-04T04:17:44;96424.56;;;21.37;36.84
84590;BME280;76270;48.816;8.740;2024-02-04T04:19:46;96424.56;;;21.37;36.52
84590;BME280;76270;48.816;8.740;2024-02-04T04:21:48;96420.03;;;21.38;36.76
84590;BME280;76270;48.816;8.740;2024-02-04T04:23:50;96417.50;;;21.36;37.04
84590;BME280;76270;48.816;8.740;2024-02-04T04:25:52;96412.94;;;21.37;36.81
84590;BME280;76270;48.816;8.740;2024-02-04T04:27:54;96407.56;;;21.37;36.67
84590;BME280;76270;48.816;8.740;2024-02-04T04:29:57;96409.25;;;21.38;36.70
84590;BME280;76270;48.816;8.740;2024-02-04T04:31:59;96411.94;;;21.38;36.87
84590;BME280;76270;48.816;8.740;2024-02-04T04:34:01;96414.78;;;21.36;36.75
84590;BME280;76270;48.816;8.740;2024-02-04T04:36:03;96427.44;;;21.36;36.54
84590;BME280;76270;48.816;8.740;2024-02-04T04:38:05;96425.56;;;21.36;36.81
84590;BME280;76270;48.816;8.740;2024-02-04T04:40:07;96427.44;;;21.36;36.53
84590;BME280;76270;48.816;8.740;2024-02-04T04:42:09;96431.97;;;21.35;36.57
84590;BME280;76270;48.816;8.740;2024-02-04T04:44:10;96431.81;;;21.37;36.50
84590;BME280;76270;48.816;8.740;2024-02-04T04:46:12;96433.66;;;21.36;36.74
84590;BME280;76270;48.816;8.740;2024-02-04T04:48:14;96436.56;;;21.35;36.62
84590;BME280;76270;48.816;8.740;2024-02-04T04:50:16;96442.59;;;21.37;36.70
84590;BME280;76270;48.816;8.740;2024-02-04T04:52:18;96439.91;;;21.37;36.84
84590;BME280;76270;48.816;8.740;2024-02-04T04:54:20;96434.66;;;21.35;36.97
84590;BME280;76270;48.816;8.740;2024-02-04T04:56:22;96452.72;;;21.35;36.68
84590;BME280;76270;48.816;8.740;2024-02-04T04:58:23;96450.84;;;21.35;36.54
84590;BME280;76270;48.816;8.740;2024-02-04T05:00:25;96450.84;;;21.35;36.67
84590;BME280;76270;48.816;8.740;2024-02-04T05:02:28;96438.22;;;21.36;36.47
84590;BME280;76270;48.816;8.740;2024-02-04T05:04:30;96435.53;;;21.36;36.89
84590;BME280;76270;48.816;8.740;2024-02-04T05:06:31;96437.56;;;21.34;36.88
84590;BME280;76270;48.816;8.740;2024-02-04T05:08:33;96434.00;;;21.33;37.00
84590;BME280;76270;48.816;8.740;2024-02-04T05:10:36;96436.56;;;21.35;36.78
84590;BME280;76270;48.816;8.740;2024-02-04T05:12:37;96425.91;;;21.33;36.91
84590;BME280;76270;48.816;8.740;2024-02-04T05:14:39;96440.25;;;21.34;36.49
84590;BME280;76270;48.816;8.740;2024-02-04T05:16:42;96452.88;;;21.33;36.76
84590;BME280;76270;48.816;8.740;2024-02-04T05:18:45;96448.34;;;21.34;36.75
84590;BME280;76270;48.816;8.740;2024-02-04T05:20:47;96450.19;;;21.33;36.74
84590;BME280;76270;48.816;8.740;2024-02-04T05:22:50;96443.94;;;21.33;36.47
84590;BME280;76270;48.816;8.740;2024-02-04T05:24:51;96441.25;;;21.33;36.71
84590;BME280;76270;48.816;8.740;2024-02-04T05:26:53;96442.94;;;21.34;36.37
84590;BME280;76270;48.816;8.740;2024-02-04T05:28:55;96449.34;;;21.33;36.56
84590;BME280;76270;48.816;8.740;2024-02-04T05:30:57;96439.59;;;21.32;36.66
84590;BME280;76270;48.816;8.740;2024-02-04T05:32:59;96444.97;;;21.32;36.47
84590;BME280;76270;48.816;8.740;2024-02-04T05:35:00;96439.41;;;21.33;36.74
84590;BME280;76270;48.816;8.740;2024-02-04T05:37:03;96451.38;;;21.31;36.51
84590;BME280;76270;48.816;8.740;2024-02-04T05:39:15;96443.28;;;21.31;36.46
84590;BME280;76270;48.816;8.740;2024-02-04T05:41:17;96450.53;;;21.30;36.67
84590;BME280;76270;48.816;8.740;2024-02-04T05:43:19;96446.16;;;21.29;36.61
84590;BME280;76270;48.816;8.740;2024-02-04T05:45:21;96455.06;;;21.30;36.61
84590;BME280;76270;48.816;8.740;2024-02-04T05:47:23;96449.66;;;21.30;36.50
84590;BME280;76270;48.816;8.740;2024-02-04T05:49:25;96447.81;;;21.30;36.64
84590;BME280;76270;48.816;8.740;2024-02-04T05:51:27;96451.19;;;21.32;36.44
84590;BME280;76270;48.816;8.740;2024-02-04T05:53:29;96456.94;;;21.29;36.67
84590;BME280;76270;48.816;8.740;2024-02-04T05:55:30;96462.34;;;21.29;36.61
84590;BME280;76270;48.816;8.740;2024-02-04T05:57:33;96456.09;;;21.29;36.47
84590;BME280;76270;48.816;8.740;2024-02-04T05:59:34;96451.56;;;21.29;36.56
84590;BME280;76270;48.816;8.740;2024-02-04T06:01:37;96451.56;;;21.29;36.31
84590;BME280;76270;48.816;8.740;2024-02-04T06:03:41;96449.66;;;21.30;36.82
84590;BME280;76270;48.816;8.740;2024-02-04T06:05:44;96448.00;;;21.29;36.91
84590;BME280;76270;48.816;8.740;2024-02-04T06:07:46;96467.72;;;21.29;36.70
84590;BME280;76270;48.816;8.740;2024-02-04T06:09:48;96470.44;;;21.29;36.44
84590;BME280;76270;48.816;8.740;2024-02-04T06:11:50;96462.34;;;21.29;36.50
84590;BME280;76270;48.816;8.740;2024-02-04T06:13:52;96468.72;;;21.28;36.63
84590;BME280;76270;48.816;8.740;2024-02-04T06:15:53;96461.66;;;21.27;36.38
84590;BME280;76270;48.816;8.740;2024-02-04T06:17:55;96463.34;;;21.28;36.63
84590;BME280;76270;48.816;8.740;2024-02-04T06:19:57;96478.66;;;21.28;36.80
84590;BME280;76270;48.816;8.740;2024-02-04T06:22:01;96483.06;;;21.29;36.82
84590;BME280;76270;48.816;8.740;2024-02-04T06:24:03;96481.38;;;21.28;36.39
84590;BME280;76270;48.816;8.740;2024-02-04T06:26:05;96488.59;;;21.27;36.56
84590;BME280;76270;48.816;8.740;2024-02-04T06:28:07;96486.75;;;21.28;36.80
84590;BME280;76270;48.816;8.740;2024-02-04T06:30:11;96500.25;;;21.28;36.44
84590;BME280;76270;48.816;8.740;2024-02-04T06:32:13;96504.78;;;21.27;36.67
84590;BME280;76270;48.816;8.740;2024-02-04T06:34:14;96497.53;;;21.28;36.54
84590;BME280;76270;48.816;8.740;2024-02-04T06:36:16;96492.16;;;21.28;36.94
84590;BME280;76270;48.816;8.740;2024-02-04T06:38:18;96485.91;;;21.27;36.70
84590;BME280;76270;48.816;8.740;2024-02-04T06:40:20;96488.59;;;21.27;36.70
84590;BME280;76270;48.816;8.740;2024-02-04T06:42:22;96483.22;;;21.27;36.49
84590;BME280;76270;48.816;8.740;2024-02-04T06:44:24;96487.59;;;21.28;36.74
84590;BME280;76270;48.816;8.740;2024-02-04T06:46:28;96484.06;;;21.28;36.76
84590;BME280;76270;48.816;8.740;2024-02-04T06:48:30;96485.06;;;21.27;36.41
84590;BME280;76270;48.816;8.740;2024-02-04T06:50:32;96499.38;;;21.27;36.55
84590;BME280;76270;48.816;8.740;2024-02-04T06:52:35;96492.34;;;21.26;36.77
84590;BME280;76270;48.816;8.740;2024-02-04T06:54:36;96482.38;;;21.27;36.60
84590;BME280;76270;48.816;8.740;2024-02-04T06:56:40;96490.44;;;21.27;36.70
84590;BME280;76270;48.816;8.740;2024-02-04T06:58:42;96485.91;;;21.27;36.63
84590;BME280;76270;48.816;8.740;2024-02-04T07:00:46;96484.91;;;21.28;36.67
84590;BME280;76270;48.816;8.740;2024-02-04T07:02:48;96485.06;;;21.27;36.67
84590;BME280;76270;48.816;8.740;2024-02-04T07:04:50;96490.44;;;21.27;36.82
84590;BME280;76270;48.816;8.740;2024-02-04T07:06:55;96483.22;;;21.27;36.47
84590;BME280;76270;48.816;8.740;2024-02-04T07:08:57;96483.22;;;21.27;36.68
84590;BME280;76270;48.816;8.740;2024-02-04T07:10:59;96483.06;;;21.29;36.76
84590;BME280;76270;48.816;8.740;2024-02-04T07:13:01;96483.22;;;21.27;36.88
84590;BME280;76270;48.816;8.740;2024-02-04T07:15:03;96479.53;;;21.28;36.68
84590;BME280;76270;48.816;8.740;2024-02-04T07:17:05;96467.88;;;21.28;36.94
84590;BME280;76270;48.816;8.740;2024-02-04T07:19:06;96467.03;;;21.27;36.69
84590;BME280;76270;48.816;8.740;2024-02-04T07:21:09;96463.34;;;21.28;36.40
84590;BME280;76270;48.816;8.740;2024-02-04T07:23:10;96452.56;;;21.28;36.83
84590;BME280;76270;48.816;8.740;2024-02-04T07:25:13;96455.06;;;21.30;36.48
84590;BME280;76270;48.816;8.740;2024-02-04T07:27:14;96459.66;;;21.29;36.87
84590;BME280;76270;48.816;8.740;2024-02-04T07:29:16;96461.50;;;21.29;36.82
84590;BME280;76270;48.816;8.740;2024-02-04T07:31:18;96467.56;;;21.31;36.74
84590;BME280;76270;48.816;8.740;2024-02-04T07:33:20;96458.63;;;21.30;36.79
84590;BME280;76270;48.816;8.740;2024-02-04T07:35:22;96461.31;;;21.30;36.77
84590;BME280;76270;48.816;8.740;2024-02-04T07:37:24;96453.22;;;21.30;36.62
84590;BME280;76270;48.816;8.740;2024-02-04T07:39:26;96464.66;;;21.32;36.79
84590;BME280;76270;48.816;8.740;2024-02-04T07:41:28;96458.47;;;21.32;36.61
84590;BME280;76270;48.816;8.740;2024-02-04T07:43:30;96456.56;;;21.32;36.75
84590;BME280;76270;48.816;8.740;2024-02-04T07:45:32;96455.56;;;21.33;36.68
84590;BME280;76270;48.816;8.740;2024-02-04T07:47:34;96452.88;;;21.33;36.39
84590;BME280;76270;48.816;8.740;2024-02-04T07:49:36;96447.50;;;21.33;36.63
84590;BME280;76270;48.816;8.740;2024-02-04T07:51:38;96446.63;;;21.33;36.51
84590;BME280;76270;48.816;8.740;2024-02-04T07:53:41;96439.25;;;21.35;36.62
84590;BME280;76270;48.816;8.740;2024-02-04T07:55:42;96431.97;;;21.35;36.60
84590;BME280;76270;48.816;8.740;2024-02-04T07:57:44;96441.94;;;21.35;36.34
84590;BME280;76270;48.816;8.740;2024-02-04T07:59:46;96439.06;;;21.36;36.43
84590;BME280;76270;48.816;8.740;2024-02-04T08:01:48;96437.38;;;21.35;36.48
84590;BME280;76270;48.816;8.740;2024-02-04T08:03:50;96433.50;;;21.38;36.51
84590;BME280;76270;48.816;8.740;2024-02-04T08:05:52;96431.81;;;21.37;36.76
84590;BME280;76270;48.816;8.740;2024-02-04T08:07:54;96435.38;;;21.37;36.74
84590;BME280;76270;48.816;8.740;2024-02-04T08:09:56;96447.00;;;21.38;36.81
84590;BME280;76270;48.816;8.740;2024-02-04T08:11:58;96457.78;;;21.38;36.59
84590;BME280;76270;48.816;8.740;2024-02-04T08:14:00;96445.31;;;21.37;36.51
84590;BME280;76270;48.816;8.740;2024-02-04T08:16:02;96447.00;;;21.38;36.76
84590;BME280;76270;48.816;8.740;2024-02-04T08:18:04;96445.13;;;21.38;36.37
84590;BME280;76270;48.816;8.740;2024-02-04T08:20:09;96453.72;;;21.42;36.65
84590;BME280;76270;48.816;8.740;2024-02-04T08:22:11;96447.97;;;21.45;37.15
84590;BME280;76270;48.816;8.740;2024-02-04T08:24:13;96445.94;;;21.47;37.18
84590;BME280;76270;48.816;8.740;2024-02-04T08:26:15;96451.00;;;21.50;37.28
84590;BME280;76270;48.816;8.740;2024-02-04T08:28:17;96450.84;;;21.51;37.19
84590;BME280;76270;48.816;8.740;2024-02-04T08:30:19;96453.38;;;21.53;36.90
84590;BME280;76270;48.816;8.740;2024-02-04T08:32:21;96454.06;;;21.55;37.09
84590;BME280;76270;48.816;8.740;2024-02-04T08:34:22;96456.56;;;21.56;37.37
84590;BME280;76270;48.816;8.740;2024-02-04T08:36:29;96459.94;;;21.58;37.32
84590;BME280;76270;48.816;8.740;2024-02-04T08:38:32;96446.28;;;21.60;37.12
84590;BME280;76270;48.816;8.740;2024-02-04T08:40:34;96446.28;;;21.60;37.21
84590;BME280;76270;48.816;8.740;2024-02-04T08:42:36;96454.19;;;21.62;37.39
84590;BME280;76270;48.816;8.740;2024-02-04T08:44:38;96456.53;;;21.65;37.39
84590;BME280;76270;48.816;8.740;2024-02-04T08:46:40;96462.63;;;21.67;37.62
84590;BME280;76270;48.816;8.740;2024-02-04T08:48:42;96458.06;;;21.67;37.59
84590;BME280;76270;48.816;8.740;2024-02-04T08:50:57;96455.88;;;21.71;37.22
84590;BME280;76270;48.816;8.740;2024-02-04T08:53:25;96437.81;;;21.71;37.44
84590;BME280;76270;48.816;8.740;2024-02-04T08:55:27;96434.78;;;21.74;38.10
84590;BME280;76270;48.816;8.740;2024-02-04T08:57:30;96435.47;;;21.68;37.81
84590;BME280;76270;48.816;8.740;2024-02-04T08:59:31;96436.81;;;21.64;38.10
84590;BME280;76270;48.816;8.740;2024-02-04T09:01:33;96434.31;;;21.63;37.82
84590;BME280;76270;48.816;8.740;2024-02-04T09:03:35;96446.28;;;21.60;38.11
84590;BME280;76270;48.816;8.740;2024-02-04T09:05:38;96447.28;;;21.59;37.60
84590;BME280;76270;48.816;8.740;2024-02-04T09:07:40;96451.84;;;21.58;37.59
84590;BME280;76270;48.816;8.740;2024-02-04T09:09:42;96455.38;;;21.59;37.75
84590;BME280;76270;48.816;8.740;2024-02-04T09:11:44;96449.97;;;21.59;37.82
84590;BME280;76270;48.816;8.740;2024-02-04T09:13:46;96440.22;;;21.58;37.60
84590;BME280;76270;48.816;8.740;2024-02-04T09:15:49;96447.47;;;21.57;38.02
84590;BME280;76270;48.816;8.740;2024-02-04T09:17:51;96446.63;;;21.57;37.96
84590;BME280;76270;48.816;8.740;2024-02-04T09:19:53;96457.56;;;21.55;37.99
84590;BME280;76270;48.816;8.740;2024-02-04T09:21:55;96442.94;;;21.58;37.98
84590;BME280;76270;48.816;8.740;2024-02-04T09:23:57;96453.72;;;21.58;38.12
84590;BME280;76270;48.816;8.740;2024-02-04T09:25:59;96457.41;;;21.57;37.81
84590;BME280;76270;48.816;8.740;2024-02-04T09:28:01;96453.03;;;21.56;38.21
84590;BME280;76270;48.816;8.740;2024-02-04T09:30:03;96461.31;;;21.54;38.51
84590;BME280;76270;48.816;8.740;2024-02-04T09:32:06;96461.63;;;21.51;38.46
84590;BME280;76270;48.816;8.740;2024-02-04T09:34:08;96468.03;;;21.50;38.00
84590;BME280;76270;48.816;8.740;2024-02-04T09:36:10;96483.72;;;21.47;38.68
84590;BME280;76270;48.816;8.740;2024-02-04T09:38:12;96481.19;;;21.45;38.04
84590;BME280;76270;48.816;8.740;2024-02-04T09:40:15;96479.81;;;21.49;37.87
84590;BME280;76270;48.816;8.740;2024-02-04T09:42:20;96489.28;;;21.53;38.33
84590;BME280;76270;48.816;8.740;2024-02-04T09:44:23;96487.44;;;21.54;38.20
84590;BME280;76270;48.816;8.740;2024-02-04T09:46:27;96482.19;;;21.52;38.37
84590;BME280;76270;48.816;8.740;2024-02-04T09:48:32;96472.44;;;21.51;37.88
84590;BME280;76270;48.816;8.740;2024-02-04T09:50:34;96468.53;;;21.54;38.47
84590;BME280;76270;48.816;8.740;2024-02-04T09:52:39;96473.94;;;21.54;38.04
84590;BME280;76270;48.816;8.740;2024-02-04T09:54:46;96464.00;;;21.54;38.15
84590;BME280;76270;48.816;8.740;2024-02-04T09:56:49;96464.69;;;21.48;38.15
84590;BME280;76270;48.816;8.740;2024-02-04T09:58:52;96450.00;;;21.51;38.52
84590;BME280;76270;48.816;8.740;2024-02-04T10:00:54;96441.91;;;21.51;38.98
84590;BME280;76270;48.816;8.740;2024-02-04T10:02:56;96426.56;;;21.51;38.47
84590;BME280;76270;48.816;8.740;2024-02-04T10:05:00;96418.63;;;21.50;38.51
84590;BME280;76270;48.816;8.740;2024-02-04T10:07:02;96417.31;;;21.46;38.62
84590;BME280;76270;48.816;8.740;2024-02-04T10:09:04;96414.97;;;21.43;38.52
84590;BME280;76270;48.816;8.740;2024-02-04T10:11:06;96394.56;;;21.48;38.44
84590;BME280;76270;48.816;8.740;2024-02-04T10:13:09;96392.19;;;21.45;38.19
84590;BME280;76270;48.816;8.740;2024-02-04T10:15:11;96369.63;;;21.46;38.56
84590;BME280;76270;48.816;8.740;2024-02-04T10:17:15;96379.56;;;21.46;38.19
84590;BME280;76270;48.816;8.740;2024-02-04T10:19:17;96407.53;;;21.45;38.43
84590;BME280;76270;48.816;8.740;2024-02-04T10:21:21;96425.56;;;21.44;38.42
84590;BME280;76270;48.816;8.740;2024-02-04T10:23:25;96420.34;;;21.43;38.80
84590;BME280;76270;48.816;8.740;2024-02-04T10:25:27;96395.38;;;21.41;38.65
84590;BME280;76270;48.816;8.740;2024-02-04T10:27:29;96416.81;;;21.42;38.22
84590;BME280;76270;48.816;8.740;2024-02-04T10:29:37;96423.03;;;21.43;38.23
84590;BME280;76270;48.816;8.740;2024-02-04T10:31:39;96432.16;;;21.42;38.57
84590;BME280;76270;48.816;8.740;2024-02-04T10:33:42;96439.38;;;21.41;38.27
84590;BME280;76270;48.816;8.740;2024-02-04T10:35:44;96450.34;;;21.40;38.44
84590;BME280;76270;48.816;8.740;2024-02-04T10:37:46;96447.66;;;21.40;38.07
84590;BME280;76270;48.816;8.740;2024-02-04T10:39:48;96442.59;;;21.37;38.42
84590;BME280;76270;48.816;8.740;2024-02-04T10:41:51;96449.69;;;21.38;38.17
84590;BME280;76270;48.816;8.740;2024-02-04T10:43:54;96450.50;;;21.38;38.29
84590;BME280;76270;48.816;8.740;2024-02-04T10:45:57;96447.66;;;21.40;38.45
84590;BME280;76270;48.816;8.740;2024-02-04T10:48:04;96442.25;;;21.40;38.59
84590;BME280;76270;48.816;8.740;2024-02-04T10:50:08;96442.78;;;21.43;38.34
84590;BME280;76270;48.816;8.740;2024-02-04T10:52:10;96440.56;;;21.47;37.93